createdAt,value
2018-10-21T00:04:40.492Z,3.90
2018-10-21T00:09:31.389Z,3.43
2018-10-21T00:14:22.293Z,3.37
2018-10-21T00:19:13.994Z,3.00
2018-10-21T00:24:05.644Z,3.37
2018-10-21T00:28:56.547Z,3.40
2018-10-21T00:33:48.207Z,3.50
2018-10-21T00:38:39.205Z,3.47
2018-10-21T00:43:30.100Z,3.03
2018-10-21T00:48:21.003Z,3.83
2018-10-21T00:53:11.900Z,3.00
2018-10-21T00:58:03.516Z,2.90
2018-10-21T01:02:54.430Z,3.20
2018-10-21T01:07:46.064Z,3.20
2018-10-21T01:12:37.033Z,3.40
2018-10-21T01:17:28.623Z,2.90
2018-10-21T01:22:19.525Z,3.10
2018-10-21T01:27:10.539Z,2.90
2018-10-21T01:32:01.376Z,4.00
2018-10-21T01:36:53.131Z,2.70
2018-10-21T01:41:43.920Z,3.17
2018-10-21T01:46:34.801Z,3.40
2018-10-21T01:51:26.445Z,2.67
2018-10-21T01:56:17.348Z,3.13
2018-10-21T02:01:08.990Z,2.93
2018-10-21T02:05:59.903Z,3.37
2018-10-21T02:10:51.535Z,3.00
2018-10-21T02:15:42.434Z,3.00
2018-10-21T02:20:33.347Z,3.23
2018-10-21T02:25:24.242Z,3.00
2018-10-21T02:30:15.146Z,2.67
2018-10-21T02:35:06.786Z,3.17
2018-10-21T02:39:57.685Z,3.10
2018-10-21T02:44:48.584Z,2.97
2018-10-21T02:49:39.477Z,3.03
2018-10-21T02:54:30.368Z,2.70
2018-10-21T02:59:21.287Z,3.03
2018-10-21T03:04:12.192Z,3.17
2018-10-21T03:09:03.095Z,3.13
2018-10-21T03:13:55.468Z,3.27
2018-10-21T03:18:46.375Z,3.00
2018-10-21T03:23:38.023Z,3.03
2018-10-21T03:28:28.950Z,2.30
2018-10-21T03:33:20.052Z,2.83
2018-10-21T03:38:10.748Z,2.53
2018-10-21T03:43:02.377Z,3.00
2018-10-21T03:47:53.282Z,3.37
2018-10-21T03:52:44.167Z,2.10
2018-10-21T03:57:35.812Z,4.07
2018-10-21T04:02:26.726Z,3.07
2018-10-21T04:07:18.436Z,3.30
2018-10-21T04:12:09.327Z,3.73
2018-10-21T04:17:00.256Z,3.03
2018-10-21T04:21:51.891Z,3.27
2018-10-21T04:26:42.784Z,3.23
2018-10-21T04:31:33.672Z,2.80
2018-10-21T04:36:25.302Z,2.90
2018-10-21T04:41:16.205Z,2.93
2018-10-21T04:46:07.920Z,3.27
2018-10-21T04:50:58.747Z,2.60
2018-10-21T04:55:49.757Z,2.37
2018-10-21T05:00:40.757Z,2.70
2018-10-21T05:05:32.364Z,3.00
2018-10-21T05:10:23.246Z,3.10
2018-10-21T05:15:14.896Z,2.80
2018-10-21T05:20:05.778Z,2.73
2018-10-21T05:24:58.232Z,2.83
2018-10-21T05:29:49.121Z,3.00
2018-10-21T05:34:40.050Z,3.17
2018-10-21T05:39:31.683Z,3.10
2018-10-21T05:44:22.689Z,3.30
2018-10-21T05:49:14.395Z,3.00
2018-10-21T05:54:05.363Z,2.90
2018-10-21T05:58:56.252Z,3.73
2018-10-21T06:03:47.179Z,3.60
2018-10-21T06:08:38.822Z,4.23
2018-10-21T06:13:29.711Z,4.13
2018-10-21T06:18:20.591Z,4.97
2018-10-21T06:23:12.238Z,4.20
2018-10-21T06:28:03.156Z,4.20
2018-10-21T06:32:54.798Z,4.90
2018-10-21T06:37:45.689Z,5.20
2018-10-21T06:42:36.574Z,5.20
2018-10-21T06:47:28.215Z,6.40
2018-10-21T06:52:19.109Z,6.70
2018-10-21T06:57:10.907Z,8.50
2018-10-21T07:02:01.656Z,8.43
2018-10-21T07:06:53.294Z,9.93
2018-10-21T07:11:44.197Z,10.60
2018-10-21T07:16:35.193Z,9.63
2018-10-21T07:21:26.805Z,9.67
2018-10-21T07:26:17.756Z,8.13
2018-10-21T07:31:08.723Z,9.27
2018-10-21T07:36:00.395Z,9.27
2018-10-21T07:40:52.020Z,8.13
2018-10-21T07:45:42.956Z,8.20
2018-10-21T07:50:34.679Z,8.90
2018-10-21T07:55:25.974Z,9.00
2018-10-21T08:00:17.625Z,9.20
2018-10-21T08:05:08.579Z,8.97
2018-10-21T08:10:00.303Z,8.80
2018-10-21T08:14:51.258Z,7.60
2018-10-21T08:19:43.660Z,8.20
2018-10-21T08:24:34.568Z,8.30
2018-10-21T08:29:25.463Z,8.00
2018-10-21T08:34:17.215Z,8.10
2018-10-21T08:39:08.026Z,8.07
2018-10-21T08:43:59.711Z,8.80
2018-10-21T08:48:51.395Z,8.50
2018-10-21T08:53:43.023Z,9.70
2018-10-21T08:58:33.911Z,9.33
2018-10-21T09:03:24.830Z,8.50
2018-10-21T09:08:15.737Z,7.83
2018-10-21T09:13:06.682Z,8.60
2018-10-21T09:17:57.565Z,7.17
2018-10-21T09:22:48.500Z,7.97
2018-10-21T09:27:39.471Z,7.70
2018-10-21T09:32:31.106Z,6.97
2018-10-21T09:37:22.018Z,6.50
2018-10-21T09:42:12.995Z,6.80
2018-10-21T09:47:03.952Z,6.40
2018-10-21T09:51:54.855Z,6.53
2018-10-21T09:56:46.494Z,7.10
2018-10-21T10:01:43.798Z,6.60
2018-10-21T10:06:34.727Z,6.40
2018-10-21T10:11:26.378Z,5.30
2018-10-21T10:16:17.351Z,5.30
2018-10-21T10:21:08.242Z,4.90
2018-10-21T10:25:59.888Z,5.27
2018-10-21T10:30:50.798Z,3.83
2018-10-21T10:35:42.453Z,4.73
2018-10-21T10:40:33.347Z,4.17
2018-10-21T10:45:24.988Z,3.93
2018-10-21T10:50:15.884Z,3.47
2018-10-21T10:55:06.920Z,2.90
2018-10-21T10:59:57.916Z,2.80
2018-10-21T11:04:48.652Z,3.60
2018-10-21T11:09:39.535Z,3.33
2018-10-21T11:14:30.539Z,2.80
2018-10-21T11:19:21.405Z,2.60
2018-10-21T11:24:12.295Z,3.17
2018-10-21T11:29:03.971Z,2.63
2018-10-21T11:33:56.427Z,2.47
2018-10-21T11:38:47.406Z,2.90
2018-10-21T11:43:38.347Z,2.53
2018-10-21T11:48:30.018Z,2.00
2018-10-21T11:53:21.656Z,2.60
2018-10-21T11:58:12.650Z,2.40
2018-10-21T12:03:04.223Z,2.67
2018-10-21T12:07:55.186Z,1.70
2018-10-21T12:12:46.088Z,2.20
2018-10-21T12:17:37.790Z,2.27
2018-10-21T12:22:29.502Z,2.40
2018-10-21T12:27:20.444Z,2.30
2018-10-21T12:32:12.078Z,1.90
2018-10-21T12:37:02.983Z,2.10
2018-10-21T12:41:53.881Z,2.10
2018-10-21T12:52:02.604Z,2.92
2018-10-21T12:56:53.472Z,2.47
2018-10-21T13:01:44.362Z,1.80
2018-10-21T13:06:35.257Z,2.20
2018-10-21T13:11:26.131Z,2.43
2018-10-21T13:16:17.085Z,2.10
2018-10-21T13:21:07.958Z,1.90
2018-10-21T13:25:58.867Z,2.80
2018-10-21T13:30:49.777Z,3.63
2018-10-21T13:35:40.679Z,2.20
2018-10-21T13:40:31.618Z,2.00
2018-10-21T13:45:22.571Z,2.10
2018-10-21T13:50:13.552Z,2.30
2018-10-21T13:55:04.454Z,2.37
2018-10-21T13:59:55.346Z,2.43
2018-10-21T14:04:46.247Z,2.50
2018-10-21T14:09:37.217Z,2.30
2018-10-21T14:14:28.120Z,1.70
2018-10-21T14:19:19.008Z,2.70
2018-10-21T14:24:09.949Z,1.77
2018-10-21T14:29:01.541Z,1.90
2018-10-21T14:33:52.440Z,2.30
2018-10-21T14:38:44.096Z,2.27
2018-10-21T14:43:35.021Z,2.60
2018-10-21T14:48:25.923Z,2.00
2018-10-21T14:53:16.819Z,1.80
2018-10-21T14:58:07.723Z,2.40
2018-10-21T15:02:58.725Z,1.97
2018-10-21T15:07:49.581Z,2.33
2018-10-21T15:12:40.532Z,1.63
2018-10-21T15:17:31.466Z,2.47
2018-10-21T15:22:23.164Z,2.63
2018-10-21T15:27:14.806Z,3.10
2018-10-21T15:32:05.809Z,2.60
2018-10-21T15:36:56.696Z,2.20
2018-10-21T15:41:48.390Z,4.13
2018-10-21T15:46:39.370Z,2.50
2018-10-21T15:51:30.340Z,3.10
2018-10-21T15:56:21.294Z,3.03
2018-10-21T16:01:12.230Z,3.73
2018-10-21T16:06:03.349Z,3.17
2018-10-21T16:10:54.292Z,2.27
2018-10-21T16:15:45.330Z,2.80
2018-10-21T16:20:36.314Z,2.60
2018-10-21T16:25:28.289Z,2.90
2018-10-21T16:30:19.191Z,2.80
2018-10-21T16:35:10.875Z,3.13
2018-10-21T16:40:02.538Z,2.50
2018-10-21T16:44:53.465Z,2.60
2018-10-21T16:49:44.443Z,3.10
2018-10-21T16:54:35.344Z,2.57
2018-10-21T16:59:26.452Z,2.33
2018-10-21T17:04:17.317Z,2.53
2018-10-21T17:09:08.352Z,2.63
2018-10-21T17:13:59.240Z,3.80
2018-10-21T17:18:50.987Z,3.13
2018-10-21T17:23:41.903Z,3.20
2018-10-21T17:28:33.532Z,3.27
2018-10-21T17:33:24.474Z,2.70
2018-10-21T17:38:15.352Z,3.07
2018-10-21T17:43:06.284Z,2.90
2018-10-21T17:47:57.905Z,3.57
2018-10-21T17:52:48.827Z,4.33
2018-10-21T17:57:40.487Z,4.33
2018-10-21T18:02:31.508Z,4.83
2018-10-21T18:07:22.420Z,5.63
2018-10-21T18:12:14.868Z,6.20
2018-10-21T18:17:05.926Z,5.97
2018-10-21T18:21:56.865Z,5.60
2018-10-21T18:26:47.761Z,5.87
2018-10-21T18:31:39.433Z,5.90
2018-10-21T18:36:31.137Z,5.57
2018-10-21T18:41:22.759Z,6.30
2018-10-21T18:46:13.664Z,6.50
2018-10-21T18:51:04.540Z,6.73
2018-10-21T18:55:56.178Z,6.90
2018-10-21T19:00:47.090Z,7.60
2018-10-21T19:05:38.711Z,7.30
2018-10-21T19:10:29.681Z,8.20
2018-10-21T19:15:20.591Z,7.97
2018-10-21T19:20:12.228Z,7.97
2018-10-21T19:25:03.113Z,8.20
2018-10-21T19:29:54.043Z,7.80
2018-10-21T19:34:46.461Z,7.40
2018-10-21T19:39:37.352Z,7.00
2018-10-21T19:44:28.289Z,6.87
2018-10-21T19:49:19.194Z,7.30
2018-10-21T19:54:10.085Z,7.03
2018-10-21T19:59:00.988Z,8.03
2018-10-21T20:03:51.881Z,7.10
2018-10-21T20:08:42.771Z,7.10
2018-10-21T20:13:33.673Z,7.13
2018-10-21T20:18:24.640Z,6.80
2018-10-21T20:23:16.213Z,6.80
2018-10-21T20:28:07.887Z,6.53
2018-10-21T20:32:58.837Z,6.40
2018-10-21T20:37:49.738Z,7.00
2018-10-21T20:42:41.382Z,7.77
2018-10-21T20:47:32.275Z,8.10
2018-10-21T20:52:23.175Z,7.60
2018-10-21T20:57:14.795Z,8.10
2018-10-21T21:02:05.671Z,7.30
2018-10-21T21:06:56.550Z,8.30
2018-10-21T21:11:47.491Z,6.87
2018-10-21T21:16:38.428Z,8.10
2018-10-21T21:21:30.146Z,6.90
2018-10-21T21:26:21.094Z,7.20
2018-10-21T21:31:12.714Z,6.83
2018-10-21T21:36:03.670Z,7.50
2018-10-21T21:40:56.028Z,7.63
2018-10-21T21:45:46.924Z,6.80
2018-10-21T21:50:38.570Z,7.80
2018-10-21T21:55:29.456Z,6.50
2018-10-21T22:00:20.367Z,6.60
2018-10-21T22:05:12.013Z,7.70
2018-10-21T22:10:02.942Z,6.10
2018-10-21T22:14:54.573Z,6.70
2018-10-21T22:19:45.497Z,6.70
2018-10-21T22:24:36.458Z,7.67
2018-10-21T22:29:28.157Z,7.43
2018-10-21T22:34:19.172Z,6.90
2018-10-21T22:39:09.968Z,6.33
2018-10-21T22:44:02.334Z,7.00
2018-10-21T22:48:53.259Z,7.27
2018-10-21T22:53:44.953Z,7.00
2018-10-21T22:58:36.624Z,6.80
2018-10-21T23:03:28.351Z,5.87
2018-10-21T23:08:19.235Z,6.33
2018-10-21T23:13:10.156Z,5.80
2018-10-21T23:18:01.816Z,6.10
2018-10-21T23:22:52.677Z,6.07
2018-10-21T23:27:44.363Z,6.13
2018-10-21T23:32:36.122Z,6.40
2018-10-21T23:37:27.055Z,5.50
2018-10-21T23:42:18.079Z,6.07
2018-10-21T23:47:08.879Z,5.57
2018-10-21T23:51:59.865Z,5.83
2018-10-21T23:56:50.680Z,5.13
